sensor_id;sensor_type;location;lat;lon;timestamp;pressure;altitude;pressure_sealevel;temperature;humidity
79048;BME280;68680;50.764;6.120;2023-04-06T00:00:43;99602.63;;;1.55;64.87
79048;BME280;68680;50.764;6.120;2023-04-06T00:03:08;99597.34;;;1.55;64.41
79048;BME280;68680;50.764;6.120;2023-04-06T00:05:34;99597.03;;;1.58;64.11
79048;BME280;68680;50.764;6.120;2023-04-06T00:08:01;99587.03;;;1.62;63.52
79048;BME280;68680;50.764;6.120;2023-04-06T00:10:27;99584.06;;;1.65;63.61
79048;BME280;68680;50.764;6.120;2023-04-06T00:12:53;99584.06;;;1.65;63.87
79048;BME280;68680;50.764;6.120;2023-04-06T00:15:18;99581.13;;;1.68;63.81
79048;BME280;68680;50.764;6.120;2023-04-06T00:17:44;99579.78;;;1.64;63.40
79048;BME280;68680;50.764;6.120;2023-04-06T00:20:10;99584.22;;;1.55;63.82
79048;BME280;68680;50.764;6.120;2023-04-06T00:22:36;99587.97;;;1.53;64.75
79048;BME280;68680;50.764;6.120;2023-04-06T00:25:03;99580.59;;;1.48;65.42
79048;BME280;68680;50.764;6.120;2023-04-06T00:27:29;99584.34;;;1.38;66.53
79048;BME280;68680;50.764;6.120;2023-04-06T00:29:55;99575.47;;;1.31;67.46
79048;BME280;68680;50.764;6.120;2023-04-06T00:32:20;99578.25;;;1.29;67.67
79048;BME280;68680;50.764;6.120;2023-04-06T00:34:46;99577.44;;;1.29;66.51
79048;BME280;68680;50.764;6.120;2023-04-06T00:37:12;99581.06;;;1.28;67.70
79048;BME280;68680;50.764;6.120;2023-04-06T00:39:37;99575.44;;;1.22;67.83
79048;BME280;68680;50.764;6.120;2023-04-06T00:42:09;99573.31;;;1.18;67.52
79048;BME280;68680;50.764;6.120;2023-04-06T00:44:35;99561.50;;;1.14;67.04
79048;BME280;68680;50.764;6.120;2023-04-06T00:47:01;99565.25;;;1.11;66.75
79048;BME280;68680;50.764;6.120;2023-04-06T00:49:27;99564.59;;;1.09;67.06
79048;BME280;68680;50.764;6.120;2023-04-06T00:51:52;99562.47;;;1.05;66.50
79048;BME280;68680;50.764;6.120;2023-04-06T00:54:18;99560.81;;;1.04;67.09
79048;BME280;68680;50.764;6.120;2023-04-06T00:56:44;99558.34;;;1.02;67.96
79048;BME280;68680;50.764;6.120;2023-04-06T00:59:11;99561.28;;;0.99;68.61
79048;BME280;68680;50.764;6.120;2023-04-06T01:01:37;99556.19;;;0.98;68.49
79048;BME280;68680;50.764;6.120;2023-04-06T01:04:03;99550.25;;;0.88;68.69
79048;BME280;68680;50.764;6.120;2023-04-06T01:06:28;99556.31;;;0.88;68.76
79048;BME280;68680;50.764;6.120;2023-04-06T01:08:54;99542.88;;;0.99;67.16
79048;BME280;68680;50.764;6.120;2023-04-06T01:11:20;99539.97;;;1.02;65.98
79048;BME280;68680;50.764;6.120;2023-04-06T01:13:46;99538.66;;;1.06;66.22
79048;BME280;68680;50.764;6.120;2023-04-06T01:16:13;99536.88;;;1.15;66.28
79048;BME280;68680;50.764;6.120;2023-04-06T01:18:38;99535.22;;;1.14;66.68
79048;BME280;68680;50.764;6.120;2023-04-06T01:21:04;99542.94;;;1.15;65.73
79048;BME280;68680;50.764;6.120;2023-04-06T01:23:31;99535.56;;;1.19;65.61
79048;BME280;68680;50.764;6.120;2023-04-06T01:25:56;99535.06;;;1.15;66.98
79048;BME280;68680;50.764;6.120;2023-04-06T01:28:22;99528.97;;;1.07;66.73
79048;BME280;68680;50.764;6.120;2023-04-06T01:30:48;99522.41;;;1.03;67.54
79048;BME280;68680;50.764;6.120;2023-04-06T01:33:13;99519.28;;;1.07;68.37
79048;BME280;68680;50.764;6.120;2023-04-06T01:35:39;99525.69;;;1.05;66.44
79048;BME280;68680;50.764;6.120;2023-04-06T01:38:04;99523.22;;;1.03;66.83
79048;BME280;68680;50.764;6.120;2023-04-06T01:40:31;99517.31;;;0.93;68.31
79048;BME280;68680;50.764;6.120;2023-04-06T01:42:57;99513.97;;;0.83;68.39
79048;BME280;68680;50.764;6.120;2023-04-06T01:45:23;99515.09;;;0.72;68.63
79048;BME280;68680;50.764;6.120;2023-04-06T01:47:48;99519.03;;;0.68;69.67
79048;BME280;68680;50.764;6.120;2023-04-06T01:50:14;99515.25;;;0.63;68.31
79048;BME280;68680;50.764;6.120;2023-04-06T01:52:40;99516.88;;;0.64;68.34
79048;BME280;68680;50.764;6.120;2023-04-06T01:55:06;99505.22;;;0.66;68.14
79048;BME280;68680;50.764;6.120;2023-04-06T01:57:33;99513.59;;;0.62;68.06
79048;BME280;68680;50.764;6.120;2023-04-06T01:59:59;99515.53;;;0.60;68.96
79048;BME280;68680;50.764;6.120;2023-04-06T02:02:25;99505.03;;;0.60;68.47
79048;BME280;68680;50.764;6.120;2023-04-06T02:04:50;99508.97;;;0.56;69.41
79048;BME280;68680;50.764;6.120;2023-04-06T02:07:16;99506.84;;;0.51;70.01
79048;BME280;68680;50.764;6.120;2023-04-06T02:09:41;99508.91;;;0.39;70.07
79048;BME280;68680;50.764;6.120;2023-04-06T02:12:07;99508.72;;;0.33;70.67
79048;BME280;68680;50.764;6.120;2023-04-06T02:14:34;99504.44;;;0.32;72.28
79048;BME280;68680;50.764;6.120;2023-04-06T02:16:59;99502.16;;;0.29;71.96
79048;BME280;68680;50.764;6.120;2023-04-06T02:19:25;99503.75;;;0.22;71.05
79048;BME280;68680;50.764;6.120;2023-04-06T02:21:51;99502.25;;;0.19;71.43
79048;BME280;68680;50.764;6.120;2023-04-06T02:24:16;99497.84;;;0.20;71.14
79048;BME280;68680;50.764;6.120;2023-04-06T02:26:42;99494.91;;;0.23;71.49
79048;BME280;68680;50.764;6.120;2023-04-06T02:29:07;99497.69;;;0.29;70.81
79048;BME280;68680;50.764;6.120;2023-04-06T02:31:34;99494.09;;;0.30;69.42
79048;BME280;68680;50.764;6.120;2023-04-06T02:34:00;99483.00;;;0.36;69.23
79048;BME280;68680;50.764;6.120;2023-04-06T02:36:26;99482.50;;;0.41;68.41
79048;BME280;68680;50.764;6.120;2023-04-06T02:38:51;99472.53;;;0.45;68.64
79048;BME280;68680;50.764;6.120;2023-04-06T02:41:17;99475.50;;;0.50;68.39
79048;BME280;68680;50.764;6.120;2023-04-06T02:43:42;99468.50;;;0.58;67.87
79048;BME280;68680;50.764;6.120;2023-04-06T02:46:08;99470.28;;;0.66;69.34
79048;BME280;68680;50.764;6.120;2023-04-06T02:48:35;99465.50;;;0.53;68.65
79048;BME280;68680;50.764;6.120;2023-04-06T02:51:00;99472.72;;;0.51;69.36
79048;BME280;68680;50.764;6.120;2023-04-06T02:53:26;99469.56;;;0.48;69.94
79048;BME280;68680;50.764;6.120;2023-04-06T02:55:52;99461.38;;;0.43;69.76
79048;BME280;68680;50.764;6.120;2023-04-06T02:58:17;99465.97;;;0.40;68.69
79048;BME280;68680;50.764;6.120;2023-04-06T03:00:43;99457.47;;;0.55;67.31
79048;BME280;68680;50.764;6.120;2023-04-06T03:03:08;99455.84;;;0.62;66.21
79048;BME280;68680;50.764;6.120;2023-04-06T03:05:35;99460.13;;;0.71;66.40
79048;BME280;68680;50.764;6.120;2023-04-06T03:08:01;99462.44;;;0.74;66.86
79048;BME280;68680;50.764;6.120;2023-04-06T03:10:27;99460.00;;;0.80;67.06
79048;BME280;68680;50.764;6.120;2023-04-06T03:12:52;99460.66;;;0.91;65.99
79048;BME280;68680;50.764;6.120;2023-04-06T03:15:18;99459.53;;;0.85;67.11
79048;BME280;68680;50.764;6.120;2023-04-06T03:17:44;99460.19;;;0.87;66.53
79048;BME280;68680;50.764;6.120;2023-04-06T03:20:09;99459.84;;;0.90;67.81
79048;BME280;68680;50.764;6.120;2023-04-06T03:22:36;99461.81;;;0.88;67.52
79048;BME280;68680;50.764;6.120;2023-04-06T03:25:02;99454.44;;;0.92;67.18
79048;BME280;68680;50.764;6.120;2023-04-06T03:27:28;99453.81;;;0.98;66.64
79048;BME280;68680;50.764;6.120;2023-04-06T03:29:54;99451.97;;;1.06;65.85
79048;BME280;68680;50.764;6.120;2023-04-06T03:32:19;99444.09;;;1.06;65.50
79048;BME280;68680;50.764;6.120;2023-04-06T03:34:45;99453.13;;;1.12;65.67
79048;BME280;68680;50.764;6.120;2023-04-06T03:37:10;99451.00;;;1.07;66.41
79048;BME280;68680;50.764;6.120;2023-04-06T03:39:37;99451.00;;;1.07;67.94
79048;BME280;68680;50.764;6.120;2023-04-06T03:42:03;99441.50;;;0.98;68.13
79048;BME280;68680;50.764;6.120;2023-04-06T03:44:29;99454.09;;;0.95;69.23
79048;BME280;68680;50.764;6.120;2023-04-06T03:46:54;99447.53;;;0.91;69.79
79048;BME280;68680;50.764;6.120;2023-04-06T03:49:20;99445.75;;;0.91;69.75
79048;BME280;68680;50.764;6.120;2023-04-06T03:51:46;99441.81;;;0.95;68.75
79048;BME280;68680;50.764;6.120;2023-04-06T03:54:11;99441.31;;;1.00;67.86
79048;BME280;68680;50.764;6.120;2023-04-06T03:56:38;99441.47;;;1.06;68.89
79048;BME280;68680;50.764;6.120;2023-04-06T03:59:04;99434.28;;;1.08;68.40
79048;BME280;68680;50.764;6.120;2023-04-06T04:01:30;99434.28;;;1.16;67.75
79048;BME280;68680;50.764;6.120;2023-04-06T04:03:55;99433.13;;;1.19;67.47
79048;BME280;68680;50.764;6.120;2023-04-06T04:06:21;99437.72;;;1.25;66.96
79048;BME280;68680;50.764;6.120;2023-04-06T04:08:47;99441.84;;;1.28;67.15
79048;BME280;68680;50.764;6.120;2023-04-06T04:11:12;99438.19;;;1.29;68.43
79048;BME280;68680;50.764;6.120;2023-04-06T04:13:39;99445.59;;;1.25;68.54
79048;BME280;68680;50.764;6.120;2023-04-06T04:16:05;99450.34;;;1.30;68.46
79048;BME280;68680;50.764;6.120;2023-04-06T04:18:30;99444.63;;;1.26;67.92
79048;BME280;68680;50.764;6.120;2023-04-06T04:20:56;99443.28;;;1.30;67.58
79048;BME280;68680;50.764;6.120;2023-04-06T04:23:22;99447.72;;;1.38;67.36
79048;BME280;68680;50.764;6.120;2023-04-06T04:25:48;99447.38;;;1.49;66.82
79048;BME280;68680;50.764;6.120;2023-04-06T04:28:13;99451.31;;;1.53;66.89
79048;BME280;68680;50.764;6.120;2023-04-06T04:30:40;99447.19;;;1.67;67.13
79048;BME280;68680;50.764;6.120;2023-04-06T04:33:06;99447.69;;;1.70;67.05
79048;BME280;68680;50.764;6.120;2023-04-06T04:35:32;99445.38;;;1.75;65.97
79048;BME280;68680;50.764;6.120;2023-04-06T04:37:57;99444.03;;;1.87;64.53
79048;BME280;68680;50.764;6.120;2023-04-06T04:40:23;99450.59;;;1.91;65.25
79048;BME280;68680;50.764;6.120;2023-04-06T04:42:48;99450.06;;;2.04;64.24
79048;BME280;68680;50.764;6.120;2023-04-06T04:45:17;99445.81;;;2.03;66.03
79048;BME280;68680;50.764;6.120;2023-04-06T04:47:44;99446.44;;;2.05;65.60
79048;BME280;68680;50.764;6.120;2023-04-06T04:50:10;99441.69;;;2.09;65.62
79048;BME280;68680;50.764;6.120;2023-04-06T04:52:37;99440.50;;;2.11;65.99
79048;BME280;68680;50.764;6.120;2023-04-06T04:55:03;99442.50;;;2.09;66.09
79048;BME280;68680;50.764;6.120;2023-04-06T04:57:29;99441.03;;;1.98;68.60
79048;BME280;68680;50.764;6.120;2023-04-06T04:59:54;99443.34;;;1.93;68.92
79048;BME280;68680;50.764;6.120;2023-04-06T05:02:20;99440.53;;;2.03;66.46
79048;BME280;68680;50.764;6.120;2023-04-06T05:04:47;99444.47;;;2.07;68.15
79048;BME280;68680;50.764;6.120;2023-04-06T05:07:12;99447.56;;;2.11;67.71
79048;BME280;68680;50.764;6.120;2023-04-06T05:09:38;99440.34;;;2.13;69.60
79048;BME280;68680;50.764;6.120;2023-04-06T05:12:04;99442.81;;;2.06;70.58
79048;BME280;68680;50.764;6.120;2023-04-06T05:14:29;99448.91;;;2.06;70.97
79048;BME280;68680;50.764;6.120;2023-04-06T05:16:55;99441.69;;;2.09;69.67
79048;BME280;68680;50.764;6.120;2023-04-06T05:19:21;99441.31;;;2.12;70.72
79048;BME280;68680;50.764;6.120;2023-04-06T05:21:48;99436.72;;;2.14;70.81
79048;BME280;68680;50.764;6.120;2023-04-06T05:24:13;99445.06;;;2.25;70.86
79048;BME280;68680;50.764;6.120;2023-04-06T05:26:39;99437.63;;;2.37;67.19
79048;BME280;68680;50.764;6.120;2023-04-06T05:29:05;99439.06;;;2.39;70.37
79048;BME280;68680;50.764;6.120;2023-04-06T05:31:30;99434.63;;;2.40;69.58
79048;BME280;68680;50.764;6.120;2023-04-06T05:33:56;99440.50;;;2.50;69.46
79048;BME280;68680;50.764;6.120;2023-04-06T05:36:22;99428.94;;;2.59;68.01
79048;BME280;68680;50.764;6.120;2023-04-06T05:38:49;99426.56;;;2.72;66.96
79048;BME280;68680;50.764;6.120;2023-04-06T05:41:15;99429.78;;;2.82;65.15
79048;BME280;68680;50.764;6.120;2023-04-06T05:43:40;99433.19;;;3.14;63.29
79048;BME280;68680;50.764;6.120;2023-04-06T05:46:06;99428.59;;;3.30;61.84
79048;BME280;68680;50.764;6.120;2023-04-06T05:48:32;99431.97;;;3.39;62.46
79048;BME280;68680;50.764;6.120;2023-04-06T05:50:57;99421.91;;;3.43;63.58
79048;BME280;68680;50.764;6.120;2023-04-06T05:53:23;99429.28;;;3.47;64.36
79048;BME280;68680;50.764;6.120;2023-04-06T05:55:50;99430.19;;;3.54;64.34
79048;BME280;68680;50.764;6.120;2023-04-06T05:58:16;99424.22;;;3.60;62.18
79048;BME280;68680;50.764;6.120;2023-04-06T06:00:41;99432.78;;;3.77;60.41
79048;BME280;68680;50.764;6.120;2023-04-06T06:03:07;99438.41;;;3.89;60.33
79048;BME280;68680;50.764;6.120;2023-04-06T06:05:33;99439.97;;;3.98;60.35
79048;BME280;68680;50.764;6.120;2023-04-06T06:07:59;99435.88;;;4.10;60.69
79048;BME280;68680;50.764;6.120;2023-04-06T06:10:25;99431.13;;;4.20;60.78
79048;BME280;68680;50.764;6.120;2023-04-06T06:12:51;99429.03;;;4.30;59.54
79048;BME280;68680;50.764;6.120;2023-04-06T06:15:17;99436.09;;;4.44;60.40
79048;BME280;68680;50.764;6.120;2023-04-06T06:17:43;99429.25;;;4.65;59.35
79048;BME280;68680;50.764;6.120;2023-04-06T06:20:09;99420.50;;;4.85;58.47
79048;BME280;68680;50.764;6.120;2023-04-06T06:22:35;99419.81;;;4.98;58.75
79048;BME280;68680;50.764;6.120;2023-04-06T06:25:00;99417.31;;;5.11;57.79
79048;BME280;68680;50.764;6.120;2023-04-06T06:27:26;99415.03;;;5.29;57.20
79048;BME280;68680;50.764;6.120;2023-04-06T06:29:53;99420.41;;;5.43;57.47
79048;BME280;68680;50.764;6.120;2023-04-06T06:32:18;99422.63;;;5.67;57.50
79048;BME280;68680;50.764;6.120;2023-04-06T06:34:44;99421.50;;;5.76;57.17
79048;BME280;68680;50.764;6.120;2023-04-06T06:37:10;99420.81;;;5.95;54.99
79048;BME280;68680;50.764;6.120;2023-04-06T06:39:35;99422.09;;;6.06;54.93
79048;BME280;68680;50.764;6.120;2023-04-06T06:42:01;99428.91;;;6.22;54.67
79048;BME280;68680;50.764;6.120;2023-04-06T06:44:27;99423.66;;;6.28;53.84
79048;BME280;68680;50.764;6.120;2023-04-06T06:46:54;99417.16;;;6.37;54.40
79048;BME280;68680;50.764;6.120;2023-04-06T06:49:19;99426.59;;;6.46;54.50
79048;BME280;68680;50.764;6.120;2023-04-06T06:51:45;99420.69;;;6.51;53.28
79048;BME280;68680;50.764;6.120;2023-04-06T06:54:11;99419.44;;;6.53;55.12
79048;BME280;68680;50.764;6.120;2023-04-06T06:56:36;99417.84;;;6.59;54.21
79048;BME280;68680;50.764;6.120;2023-04-06T06:59:02;99417.03;;;6.65;54.72
79048;BME280;68680;50.764;6.120;2023-04-06T07:01:28;99419.75;;;6.78;53.45
79048;BME280;68680;50.764;6.120;2023-04-06T07:03:55;99416.28;;;6.84;53.40
79048;BME280;68680;50.764;6.120;2023-04-06T07:06:20;99422.44;;;6.91;53.47
79048;BME280;68680;50.764;6.120;2023-04-06T07:08:46;99422.03;;;7.01;53.33
79048;BME280;68680;50.764;6.120;2023-04-06T07:11:12;99417.56;;;7.15;53.88
79048;BME280;68680;50.764;6.120;2023-04-06T07:13:37;99415.53;;;7.23;53.18
79048;BME280;68680;50.764;6.120;2023-04-06T07:16:03;99415.97;;;7.33;53.47
79048;BME280;68680;50.764;6.120;2023-04-06T07:18:29;99417.38;;;7.36;52.97
79048;BME280;68680;50.764;6.120;2023-04-06T07:20:56;99413.91;;;7.49;53.13
79048;BME280;68680;50.764;6.120;2023-04-06T07:23:21;99416.94;;;7.59;52.64
79048;BME280;68680;50.764;6.120;2023-04-06T07:25:47;99421.63;;;7.63;52.22
79048;BME280;68680;50.764;6.120;2023-04-06T07:28:12;99415.75;;;7.68;52.34
79048;BME280;68680;50.764;6.120;2023-04-06T07:30:38;99413.66;;;7.70;52.90
79048;BME280;68680;50.764;6.120;2023-04-06T07:33:04;99412.84;;;7.82;51.80
79048;BME280;68680;50.764;6.120;2023-04-06T07:35:30;99416.94;;;7.78;52.72
79048;BME280;68680;50.764;6.120;2023-04-06T07:37:57;99415.91;;;7.86;51.60
79048;BME280;68680;50.764;6.120;2023-04-06T07:40:23;99413.84;;;7.88;51.85
79048;BME280;68680;50.764;6.120;2023-04-06T07:42:49;99410.19;;;7.89;52.38
79048;BME280;68680;50.764;6.120;2023-04-06T07:45:14;99414.66;;;7.95;52.27
79048;BME280;68680;50.764;6.120;2023-04-06T07:47:40;99408.91;;;8.11;52.87
79048;BME280;68680;50.764;6.120;2023-04-06T07:50:06;99418.28;;;8.20;52.81
79048;BME280;68680;50.764;6.120;2023-04-06T07:52:32;99412.91;;;8.27;51.79
79048;BME280;68680;50.764;6.120;2023-04-06T07:54:59;99413.56;;;8.36;51.61
79048;BME280;68680;50.764;6.120;2023-04-06T07:57:25;99412.06;;;8.46;52.89
79048;BME280;68680;50.764;6.120;2023-04-06T07:59:50;99411.44;;;8.51;52.08
79048;BME280;68680;50.764;6.120;2023-04-06T08:02:16;99408.53;;;8.59;51.86
79048;BME280;68680;50.764;6.120;2023-04-06T08:04:42;99404.88;;;8.60;51.74
79048;BME280;68680;50.764;6.120;2023-04-06T08:07:07;99398.72;;;8.59;51.09
79048;BME280;68680;50.764;6.120;2023-04-06T08:09:33;99410.22;;;8.53;50.60
79048;BME280;68680;50.764;6.120;2023-04-06T08:12:00;99398.69;;;8.66;51.27
79048;BME280;68680;50.764;6.120;2023-04-06T08:14:26;99399.47;;;8.73;50.78
79048;BME280;68680;50.764;6.120;2023-04-06T08:16:51;99409.47;;;8.78;49.24
79048;BME280;68680;50.764;6.120;2023-04-06T08:19:17;99404.31;;;8.83;50.11
79048;BME280;68680;50.764;6.120;2023-04-06T08:21:43;99412.81;;;8.98;49.93
79048;BME280;68680;50.764;6.120;2023-04-06T08:24:08;99405.72;;;9.17;48.92
79048;BME280;68680;50.764;6.120;2023-04-06T08:26:34;99409.81;;;9.19;49.29
79048;BME280;68680;50.764;6.120;2023-04-06T08:29:01;99411.38;;;9.27;47.92
79048;BME280;68680;50.764;6.120;2023-04-06T08:31:27;99411.00;;;9.23;49.37
79048;BME280;68680;50.764;6.120;2023-04-06T08:33:52;99414.16;;;9.38;48.98
79048;BME280;68680;50.764;6.120;2023-04-06T08:36:18;99410.59;;;9.51;47.72
79048;BME280;68680;50.764;6.120;2023-04-06T08:38:43;99417.84;;;9.62;47.12
79048;BME280;68680;50.764;6.120;2023-04-06T08:41:10;99410.75;;;9.56;46.92
79048;BME280;68680;50.764;6.120;2023-04-06T08:43:42;99413.78;;;9.60;46.73
79048;BME280;68680;50.764;6.120;2023-04-06T08:46:10;99413.50;;;9.68;47.42
79048;BME280;68680;50.764;6.120;2023-04-06T08:48:36;99416.00;;;9.63;46.19
79048;BME280;68680;50.764;6.120;2023-04-06T08:51:02;99401.34;;;9.54;46.97
79048;BME280;68680;50.764;6.120;2023-04-06T08:53:28;99418.47;;;9.64;48.66
79048;BME280;68680;50.764;6.120;2023-04-06T08:55:55;99415.59;;;9.66;46.84
79048;BME280;68680;50.764;6.120;2023-04-06T08:58:23;99418.47;;;9.64;46.77
79048;BME280;68680;50.764;6.120;2023-04-06T09:00:49;99417.84;;;9.62;47.47
79048;BME280;68680;50.764;6.120;2023-04-06T09:03:17;99415.75;;;9.71;47.15
79048;BME280;68680;50.764;6.120;2023-04-06T09:05:44;99419.59;;;9.75;46.01
79048;BME280;68680;50.764;6.120;2023-04-06T09:08:11;99421.34;;;9.63;47.47
79048;BME280;68680;50.764;6.120;2023-04-06T09:10:40;99425.03;;;9.62;47.93
79048;BME280;68680;50.764;6.120;2023-04-06T09:13:05;99422.88;;;9.52;47.18
79048;BME280;68680;50.764;6.120;2023-04-06T09:15:31;99422.91;;;9.45;47.78
79048;BME280;68680;50.764;6.120;2023-04-06T09:17:57;99426.59;;;9.44;47.13
79048;BME280;68680;50.764;6.120;2023-04-06T09:20:25;99417.16;;;9.48;47.98
79048;BME280;68680;50.764;6.120;2023-04-06T09:22:51;99434.94;;;9.55;48.27
79048;BME280;68680;50.764;6.120;2023-04-06T09:25:18;99428.66;;;9.67;47.11
79048;BME280;68680;50.764;6.120;2023-04-06T09:27:44;99425.94;;;9.74;49.11
79048;BME280;68680;50.764;6.120;2023-04-06T09:30:12;99424.84;;;9.81;47.14
79048;BME280;68680;50.764;6.120;2023-04-06T09:32:48;99429.81;;;9.78;46.85
79048;BME280;68680;50.764;6.120;2023-04-06T09:35:14;99436.34;;;9.82;46.75
79048;BME280;68680;50.764;6.120;2023-04-06T09:37:42;99444.94;;;9.84;49.19
79048;BME280;68680;50.764;6.120;2023-04-06T09:40:08;99439.22;;;9.56;49.29
79048;BME280;68680;50.764;6.120;2023-04-06T09:42:34;99432.28;;;9.55;47.61
79048;BME280;68680;50.764;6.120;2023-04-06T09:45:00;99438.75;;;9.65;51.01
79048;BME280;68680;50.764;6.120;2023-04-06T09:47:26;99436.53;;;9.80;48.84
79048;BME280;68680;50.764;6.120;2023-04-06T09:49:55;99444.38;;;9.75;47.37
79048;BME280;68680;50.764;6.120;2023-04-06T09:52:22;99440.91;;;9.75;48.44
79048;BME280;68680;50.764;6.120;2023-04-06T09:54:51;99439.41;;;9.79;46.59
79048;BME280;68680;50.764;6.120;2023-04-06T09:57:23;99444.94;;;10.02;48.62
79048;BME280;68680;50.764;6.120;2023-04-06T09:59:57;99445.59;;;10.22;47.26
79048;BME280;68680;50.764;6.120;2023-04-06T10:02:33;99435.59;;;10.18;48.56
79048;BME280;68680;50.764;6.120;2023-04-06T10:05:09;99435.59;;;10.18;47.45
79048;BME280;68680;50.764;6.120;2023-04-06T10:07:36;99430.69;;;10.33;47.59
79048;BME280;68680;50.764;6.120;2023-04-06T10:10:03;99435.34;;;10.19;48.54
79048;BME280;68680;50.764;6.120;2023-04-06T10:12:30;99436.56;;;10.23;47.99
79048;BME280;68680;50.764;6.120;2023-04-06T10:14:56;99435.00;;;10.34;48.97
79048;BME280;68680;50.764;6.120;2023-04-06T10:17:21;99432.03;;;10.42;50.01
79048;BME280;68680;50.764;6.120;2023-04-06T10:19:54;99433.28;;;10.58;49.10
79048;BME280;68680;50.764;6.120;2023-04-06T10:22:24;99434.72;;;10.42;48.79
79048;BME280;68680;50.764;6.120;2023-04-06T10:24:52;99439.38;;;10.47;48.67
79048;BME280;68680;50.764;6.120;2023-04-06T10:27:27;99429.81;;;10.39;49.59
79048;BME280;68680;50.764;6.120;2023-04-06T10:29:53;99431.88;;;10.55;49.31
79048;BME280;68680;50.764;6.120;2023-04-06T10:32:18;99441.44;;;10.45;50.46
79048;BME280;68680;50.764;6.120;2023-04-06T10:34:44;99444.25;;;10.32;50.11
79048;BME280;68680;50.764;6.120;2023-04-06T10:37:13;99436.97;;;10.20;50.42
79048;BME280;68680;50.764;6.120;2023-04-06T10:39:45;99431.66;;;10.20;48.84
79048;BME280;68680;50.764;6.120;2023-04-06T10:42:11;99441.78;;;10.12;50.36
79048;BME280;68680;50.764;6.120;2023-04-06T10:44:42;99432.47;;;10.21;49.50
79048;BME280;68680;50.764;6.120;2023-04-06T10:47:15;99438.63;;;10.21;49.78
79048;BME280;68680;50.764;6.120;2023-04-06T10:49:41;99439.72;;;10.32;50.56
79048;BME280;68680;50.764;6.120;2023-04-06T10:52:07;99435.81;;;10.35;48.99
79048;BME280;68680;50.764;6.120;2023-04-06T10:54:33;99431.88;;;10.37;49.93
79048;BME280;68680;50.764;6.120;2023-04-06T10:56:59;99432.47;;;10.39;49.91
79048;BME280;68680;50.764;6.120;2023-04-06T10:59:24;99433.81;;;10.48;49.79
79048;BME280;68680;50.764;6.120;2023-04-06T11:01:51;99431.22;;;10.23;49.56
79048;BME280;68680;50.764;6.120;2023-04-06T11:04:19;99417.91;;;10.23;50.10
79048;BME280;68680;50.764;6.120;2023-04-06T11:06:47;99425.16;;;10.35;51.30
79048;BME280;68680;50.764;6.120;2023-04-06T11:09:23;99419.34;;;10.38;50.25
79048;BME280;68680;50.764;6.120;2023-04-06T11:11:49;99417.28;;;10.40;50.69
79048;BME280;68680;50.764;6.120;2023-04-06T11:14:14;99416.88;;;10.24;50.98
79048;BME280;68680;50.764;6.120;2023-04-06T11:16:40;99422.91;;;10.32;50.55
79048;BME280;68680;50.764;6.120;2023-04-06T11:19:07;99426.25;;;10.45;51.37
79048;BME280;68680;50.764;6.120;2023-04-06T11:21:34;99414.03;;;10.38;50.53
79048;BME280;68680;50.764;6.120;2023-04-06T11:24:07;99431.47;;;10.15;50.57
79048;BME280;68680;50.764;6.120;2023-04-06T11:26:37;99429.84;;;10.14;53.48
79048;BME280;68680;50.764;6.120;2023-04-06T11:29:03;99420.22;;;10.13;53.82
79048;BME280;68680;50.764;6.120;2023-04-06T11:31:29;99417.91;;;10.23;53.25
79048;BME280;68680;50.764;6.120;2023-04-06T11:33:56;99416.50;;;10.14;52.95
79048;BME280;68680;50.764;6.120;2023-04-06T11:36:23;99421.63;;;10.16;54.00
79048;BME280;68680;50.764;6.120;2023-04-06T11:38:49;99417.97;;;10.17;52.49
79048;BME280;68680;50.764;6.120;2023-04-06T11:41:15;99417.09;;;9.98;55.96
79048;BME280;68680;50.764;6.120;2023-04-06T11:43:46;99406.06;;;9.76;58.31
79048;BME280;68680;50.764;6.120;2023-04-06T11:46:17;99411.09;;;9.66;57.79
79048;BME280;68680;50.764;6.120;2023-04-06T11:48:44;99407.56;;;9.47;59.88
79048;BME280;68680;50.764;6.120;2023-04-06T11:51:09;99403.50;;;9.38;60.96
79048;BME280;68680;50.764;6.120;2023-04-06T11:53:44;99402.22;;;9.23;58.79
79048;BME280;68680;50.764;6.120;2023-04-06T11:56:10;99415.16;;;9.19;60.30
79048;BME280;68680;50.764;6.120;2023-04-06T11:58:36;99404.91;;;9.16;60.33
79048;BME280;68680;50.764;6.120;2023-04-06T12:01:04;99408.44;;;9.10;62.48
79048;BME280;68680;50.764;6.120;2023-04-06T12:03:30;99412.00;;;8.97;64.95
79048;BME280;68680;50.764;6.120;2023-04-06T12:05:55;99409.44;;;8.84;63.70
79048;BME280;68680;50.764;6.120;2023-04-06T12:08:21;99413.81;;;8.72;64.98
79048;BME280;68680;50.764;6.120;2023-04-06T12:10:48;99406.09;;;8.57;66.83
79048;BME280;68680;50.764;6.120;2023-04-06T12:13:13;99405.69;;;8.60;69.19
79048;BME280;68680;50.764;6.120;2023-04-06T12:15:39;99403.19;;;8.65;69.29
79048;BME280;68680;50.764;6.120;2023-04-06T12:18:05;99413.81;;;8.72;69.20
79048;BME280;68680;50.764;6.120;2023-04-06T12:20:31;99410.50;;;8.77;68.24
79048;BME280;68680;50.764;6.120;2023-04-06T12:22:56;99406.81;;;8.78;67.21
79048;BME280;68680;50.764;6.120;2023-04-06T12:25:22;99413.16;;;8.77;67.88
79048;BME280;68680;50.764;6.120;2023-04-06T12:27:49;99406.38;;;8.81;66.51
79048;BME280;68680;50.764;6.120;2023-04-06T12:30:15;99405.16;;;8.83;67.58
79048;BME280;68680;50.764;6.120;2023-04-06T12:32:41;99404.81;;;8.73;66.90
79048;BME280;68680;50.764;6.120;2023-04-06T12:35:07;99401.38;;;8.59;67.00
79048;BME280;68680;50.764;6.120;2023-04-06T12:37:33;99405.75;;;8.41;67.82
79048;BME280;68680;50.764;6.120;2023-04-06T12:39:58;99396.78;;;8.29;68.57
79048;BME280;68680;50.764;6.120;2023-04-06T12:42:24;99398.44;;;8.36;69.14
79048;BME280;68680;50.764;6.120;2023-04-06T12:44:51;99403.50;;;8.44;70.29
79048;BME280;68680;50.764;6.120;2023-04-06T12:47:17;99400.06;;;8.37;68.79
79048;BME280;68680;50.764;6.120;2023-04-06T12:49:42;99400.47;;;8.27;68.31
79048;BME280;68680;50.764;6.120;2023-04-06T12:52:08;99395.41;;;8.13;70.74
79048;BME280;68680;50.764;6.120;2023-04-06T12:54:34;99392.75;;;8.13;68.98
79048;BME280;68680;50.764;6.120;2023-04-06T12:56:59;99393.75;;;8.18;71.76
79048;BME280;68680;50.764;6.120;2023-04-06T12:59:25;99382.28;;;8.24;69.89
79048;BME280;68680;50.764;6.120;2023-04-06T13:01:52;99377.97;;;8.37;70.96
79048;BME280;68680;50.764;6.120;2023-04-06T13:04:17;99381.59;;;8.49;70.56